Main page
METAR-TAF:

METAR-TAF

Airports :

Campbell Army Airfield

Hopkinsville, Kentucky, United States

latitude: 36-40N, longitude: 087-30W, elevation: 571 ft

Current weather observation

The report was made 25 minutes ago, at 05:55 UTC
Calm wind
Temperature 77°F
Humidity 79%
Pressure 30.10 in. Hg
Visibility: 10 miles
Clear sky

METAR: KHOP 220555Z AUTO 00000KT 10SM CLR 25/21 A3010 RMK AO2 SLP189 T02470208 10313 20246 403350210 58004

Time: 01:20 (06:20 UTC)

Forecast

The report was made 6 hours and 20 minutes ago, at 00:00 UTC
Forecast valid from 22 at 00 UTC to 23 at 06 UTC
Wind 7 mph from variable directions
Visibility 6.2 miles or more
Scattered clouds at a height of 5000 ft
Becoming
from 22 at 12 UTC to 22 at 13 UTC
Wind 7 mph from the South/Southwest
Visibility 6.2 miles or more
Scattered clouds at a height of 4000 ft

TAF: KHOP 220000Z 2200/2306 VRB06KT 9999 SCT050 QNH3011INS BECMG 2212/2213 20006KT 9999 SCT040 QNH2994INS TX34/2219Z TN22/2208Z

Weather observations and forecasts of more than 4000 airports (METAR and TAF reports).

The available stations are represented by yellow and red dots on the map.

Hover mouse over dot to see the name of the station.

Then click to see weather observations and forecasts.

To change the map : click on the green buttons with a black cross to zoom in, on the green button with a dash to zoom out, or on the green arrows for adjacent maps.


METAR-TAF: